sensor_id;sensor_type;location;lat;lon;timestamp;noise_LAeq;noise_LA_min;noise_LA_max;noise_LA01;noise_LA95
11999;Laerm;40817;51.520;9.954;2023-02-07T00:01:31;38.97;32.93;43.72;;
11999;Laerm;40817;51.520;9.954;2023-02-07T00:03:59;40.19;35.04;48.00;;
11999;Laerm;40817;51.520;9.954;2023-02-07T00:06:30;39.03;33.55;45.27;;
11999;Laerm;40817;51.520;9.954;2023-02-07T00:08:59;41.40;34.31;51.61;;
11999;Laerm;40817;51.520;9.954;2023-02-07T00:11:27;39.93;35.04;44.35;;
11999;Laerm;40817;51.520;9.954;2023-02-07T00:13:57;38.89;32.35;55.53;;
11999;Laerm;40817;51.520;9.954;2023-02-07T00:16:27;38.91;33.44;43.99;;
11999;Laerm;40817;51.520;9.954;2023-02-07T00:18:55;40.07;34.69;48.69;;
11999;Laerm;40817;51.520;9.954;2023-02-07T00:21:24;38.69;33.90;41.81;;
11999;Laerm;40817;51.520;9.954;2023-02-07T00:23:53;38.80;32.35;43.81;;
11999;Laerm;40817;51.520;9.954;2023-02-07T00:26:24;39.18;34.31;43.90;;
11999;Laerm;40817;51.520;9.954;2023-02-07T00:28:54;40.86;32.93;45.66;;
11999;Laerm;40817;51.520;9.954;2023-02-07T00:31:27;38.50;32.35;43.19;;
11999;Laerm;40817;51.520;9.954;2023-02-07T00:33:58;39.00;33.90;52.71;;
11999;Laerm;40817;51.520;9.954;2023-02-07T00:36:30;40.54;33.44;55.75;;
11999;Laerm;40817;51.520;9.954;2023-02-07T00:38:59;39.25;33.44;48.99;;
11999;Laerm;40817;51.520;9.954;2023-02-07T00:41:28;39.56;33.90;57.03;;
11999;Laerm;40817;51.520;9.954;2023-02-07T00:43:57;39.17;33.44;50.06;;
11999;Laerm;40817;51.520;9.954;2023-02-07T00:46:26;39.15;33.44;43.04;;
11999;Laerm;40817;51.520;9.954;2023-02-07T00:48:54;39.45;33.90;42.47;;
11999;Laerm;40817;51.520;9.954;2023-02-07T00:51:22;39.07;31.68;44.49;;
11999;Laerm;40817;51.520;9.954;2023-02-07T00:53:51;39.53;32.35;62.19;;
11999;Laerm;40817;51.520;9.954;2023-02-07T00:56:21;39.35;33.90;44.94;;
11999;Laerm;40817;51.520;9.954;2023-02-07T00:58:49;39.31;34.69;55.91;;
11999;Laerm;40817;51.520;9.954;2023-02-07T01:01:17;38.73;32.93;41.68;;
11999;Laerm;40817;51.520;9.954;2023-02-07T01:03:46;38.32;32.93;42.22;;
11999;Laerm;40817;51.520;9.954;2023-02-07T01:06:14;38.74;33.44;42.16;;
11999;Laerm;40817;51.520;9.954;2023-02-07T01:08:42;38.81;31.68;42.71;;
11999;Laerm;40817;51.520;9.954;2023-02-07T01:11:13;38.72;32.93;43.81;;
11999;Laerm;40817;51.520;9.954;2023-02-07T01:13:42;38.79;33.44;42.53;;
11999;Laerm;40817;51.520;9.954;2023-02-07T01:16:18;38.99;33.44;41.53;;
11999;Laerm;40817;51.520;9.954;2023-02-07T01:18:47;38.79;34.31;42.16;;
11999;Laerm;40817;51.520;9.954;2023-02-07T01:21:18;39.03;32.93;41.68;;
11999;Laerm;40817;51.520;9.954;2023-02-07T01:23:46;39.18;33.44;41.96;;
11999;Laerm;40817;51.520;9.954;2023-02-07T01:26:14;39.19;32.35;44.43;;
11999;Laerm;40817;51.520;9.954;2023-02-07T01:28:42;41.72;34.69;47.32;;
11999;Laerm;40817;51.520;9.954;2023-02-07T01:31:12;40.22;34.69;45.04;;
11999;Laerm;40817;51.520;9.954;2023-02-07T01:33:40;39.16;34.31;42.29;;
11999;Laerm;40817;51.520;9.954;2023-02-07T01:36:13;39.38;33.44;43.63;;
11999;Laerm;40817;51.520;9.954;2023-02-07T01:38:41;39.25;33.44;41.96;;
11999;Laerm;40817;51.520;9.954;2023-02-07T01:41:10;39.03;26.91;43.54;;
11999;Laerm;40817;51.520;9.954;2023-02-07T01:43:55;38.37;32.93;43.04;;
11999;Laerm;40817;51.520;9.954;2023-02-07T01:46:24;38.14;32.93;51.13;;
11999;Laerm;40817;51.520;9.954;2023-02-07T01:48:53;38.63;32.35;51.13;;
11999;Laerm;40817;51.520;9.954;2023-02-07T01:51:24;38.95;33.90;42.03;;
11999;Laerm;40817;51.520;9.954;2023-02-07T01:53:55;38.90;33.55;42.00;;
11999;Laerm;40817;51.520;9.954;2023-02-07T01:56:24;39.65;34.31;63.04;;
11999;Laerm;40817;51.520;9.954;2023-02-07T01:58:53;39.41;33.90;42.29;;
11999;Laerm;40817;51.520;9.954;2023-02-07T02:01:24;38.94;32.93;41.68;;
11999;Laerm;40817;51.520;9.954;2023-02-07T02:03:55;39.06;33.44;42.29;;
11999;Laerm;40817;51.520;9.954;2023-02-07T02:06:29;39.24;34.69;42.98;;
11999;Laerm;40817;51.520;9.954;2023-02-07T02:09:00;39.00;33.90;43.46;;
11999;Laerm;40817;51.520;9.954;2023-02-07T02:15:21;43.08;34.31;74.11;;
11999;Laerm;40817;51.520;9.954;2023-02-07T02:22:14;39.69;33.44;43.04;;
11999;Laerm;40817;51.520;9.954;2023-02-07T02:25:19;40.41;34.31;51.33;;
11999;Laerm;40817;51.520;9.954;2023-02-07T02:28:26;40.07;34.69;52.85;;
11999;Laerm;40817;51.520;9.954;2023-02-07T02:31:45;40.56;32.93;49.60;;
11999;Laerm;40817;51.520;9.954;2023-02-07T02:34:27;39.55;34.31;45.14;;
11999;Laerm;40817;51.520;9.954;2023-02-07T02:37:05;39.63;34.69;43.24;;
11999;Laerm;40817;51.520;9.954;2023-02-07T02:39:44;39.43;32.35;50.09;;
11999;Laerm;40817;51.520;9.954;2023-02-07T02:42:24;40.31;36.10;45.20;;
11999;Laerm;40817;51.520;9.954;2023-02-07T02:44:59;40.01;35.04;51.22;;
11999;Laerm;40817;51.520;9.954;2023-02-07T02:47:29;40.79;35.36;44.90;;
11999;Laerm;40817;51.520;9.954;2023-02-07T02:50:09;40.21;34.69;44.80;;
11999;Laerm;40817;51.520;9.954;2023-02-07T02:52:37;39.73;35.36;54.85;;
11999;Laerm;40817;51.520;9.954;2023-02-07T02:55:05;40.49;36.20;43.77;;
11999;Laerm;40817;51.520;9.954;2023-02-07T02:57:50;39.97;34.69;42.93;;
11999;Laerm;40817;51.520;9.954;2023-02-07T03:00:56;41.18;36.69;53.99;;
11999;Laerm;40817;51.520;9.954;2023-02-07T03:06:45;42.68;37.32;45.83;;
11999;Laerm;40817;51.520;9.954;2023-02-07T03:09:29;41.66;36.91;44.73;;
11999;Laerm;40817;51.520;9.954;2023-02-07T03:12:15;41.55;36.45;57.09;;
11999;Laerm;40817;51.520;9.954;2023-02-07T03:14:56;41.89;37.88;46.66;;
11999;Laerm;40817;51.520;9.954;2023-02-07T03:17:33;41.75;34.69;45.14;;
11999;Laerm;40817;51.520;9.954;2023-02-07T03:20:13;40.94;35.94;45.33;;
11999;Laerm;40817;51.520;9.954;2023-02-07T03:22:46;41.46;37.12;44.31;;
11999;Laerm;40817;51.520;9.954;2023-02-07T03:25:15;41.55;37.32;44.11;;
11999;Laerm;40817;51.520;9.954;2023-02-07T03:27:44;41.57;36.91;43.85;;
11999;Laerm;40817;51.520;9.954;2023-02-07T03:30:18;41.55;37.32;44.35;;
11999;Laerm;40817;51.520;9.954;2023-02-07T03:32:51;42.50;37.12;45.66;;
11999;Laerm;40817;51.520;9.954;2023-02-07T03:35:23;41.43;36.20;44.69;;
11999;Laerm;40817;51.520;9.954;2023-02-07T03:37:56;41.50;38.02;44.08;;
11999;Laerm;40817;51.520;9.954;2023-02-07T03:40:28;41.57;37.88;44.83;;
11999;Laerm;40817;51.520;9.954;2023-02-07T03:43:03;41.35;37.52;55.29;;
11999;Laerm;40817;51.520;9.954;2023-02-07T03:45:32;42.14;37.32;45.04;;
11999;Laerm;40817;51.520;9.954;2023-02-07T03:48:00;42.39;38.37;48.74;;
11999;Laerm;40817;51.520;9.954;2023-02-07T03:50:27;42.17;37.52;45.77;;
11999;Laerm;40817;51.520;9.954;2023-02-07T03:52:56;43.14;37.70;49.52;;
11999;Laerm;40817;51.520;9.954;2023-02-07T03:55:24;42.86;38.21;47.18;;
11999;Laerm;40817;51.520;9.954;2023-02-07T03:57:53;42.50;38.95;45.01;;
11999;Laerm;40817;51.520;9.954;2023-02-07T04:00:20;42.55;38.52;50.41;;
11999;Laerm;40817;51.520;9.954;2023-02-07T04:02:48;43.08;39.34;46.66;;
11999;Laerm;40817;51.520;9.954;2023-02-07T04:05:36;42.83;39.34;60.51;;
11999;Laerm;40817;51.520;9.954;2023-02-07T04:08:24;42.99;38.95;50.26;;
11999;Laerm;40817;51.520;9.954;2023-02-07T04:11:11;43.31;40.03;45.54;;
11999;Laerm;40817;51.520;9.954;2023-02-07T04:13:59;43.01;39.46;48.83;;
11999;Laerm;40817;51.520;9.954;2023-02-07T04:16:46;42.84;38.67;44.83;;
11999;Laerm;40817;51.520;9.954;2023-02-07T04:19:15;42.89;38.95;54.01;;
11999;Laerm;40817;51.520;9.954;2023-02-07T04:21:43;42.91;39.46;50.93;;
11999;Laerm;40817;51.520;9.954;2023-02-07T04:24:12;43.14;39.34;45.11;;
11999;Laerm;40817;51.520;9.954;2023-02-07T04:26:40;43.06;39.58;45.11;;
11999;Laerm;40817;51.520;9.954;2023-02-07T04:29:08;43.41;40.53;45.20;;
11999;Laerm;40817;51.520;9.954;2023-02-07T04:31:36;43.56;39.58;45.54;;
11999;Laerm;40817;51.520;9.954;2023-02-07T04:34:04;43.22;39.92;45.20;;
11999;Laerm;40817;51.520;9.954;2023-02-07T04:36:32;43.22;40.43;46.07;;
11999;Laerm;40817;51.520;9.954;2023-02-07T04:38:59;43.22;39.21;45.01;;
11999;Laerm;40817;51.520;9.954;2023-02-07T04:41:28;43.24;39.92;45.11;;
11999;Laerm;40817;51.520;9.954;2023-02-07T04:43:55;43.37;40.33;45.01;;
11999;Laerm;40817;51.520;9.954;2023-02-07T04:46:23;43.49;39.81;45.42;;
11999;Laerm;40817;51.520;9.954;2023-02-07T04:48:50;43.58;39.92;45.39;;
11999;Laerm;40817;51.520;9.954;2023-02-07T04:51:18;43.20;39.08;45.63;;
11999;Laerm;40817;51.520;9.954;2023-02-07T04:53:45;43.26;40.03;45.51;;
11999;Laerm;40817;51.520;9.954;2023-02-07T04:56:13;42.99;39.34;44.97;;
11999;Laerm;40817;51.520;9.954;2023-02-07T04:58:42;43.00;39.70;47.48;;
11999;Laerm;40817;51.520;9.954;2023-02-07T05:01:09;42.97;39.21;44.80;;
11999;Laerm;40817;51.520;9.954;2023-02-07T05:03:37;43.11;39.81;48.08;;
11999;Laerm;40817;51.520;9.954;2023-02-07T05:06:06;43.29;39.08;46.50;;
11999;Laerm;40817;51.520;9.954;2023-02-07T05:08:39;42.95;38.67;44.94;;
11999;Laerm;40817;51.520;9.954;2023-02-07T05:11:12;42.86;38.37;48.03;;
11999;Laerm;40817;51.520;9.954;2023-02-07T05:13:46;43.18;39.21;58.10;;
11999;Laerm;40817;51.520;9.954;2023-02-07T05:16:14;43.14;39.21;47.68;;
11999;Laerm;40817;51.520;9.954;2023-02-07T05:18:41;43.16;40.23;45.17;;
11999;Laerm;40817;51.520;9.954;2023-02-07T05:21:09;43.48;40.33;48.03;;
11999;Laerm;40817;51.520;9.954;2023-02-07T05:23:37;43.70;40.62;45.46;;
11999;Laerm;40817;51.520;9.954;2023-02-07T05:26:05;43.46;39.92;52.72;;
11999;Laerm;40817;51.520;9.954;2023-02-07T05:28:32;43.43;40.13;52.11;;
11999;Laerm;40817;51.520;9.954;2023-02-07T05:31:01;43.52;40.03;54.84;;
11999;Laerm;40817;51.520;9.954;2023-02-07T05:33:29;43.36;39.34;53.64;;
11999;Laerm;40817;51.520;9.954;2023-02-07T05:35:55;43.60;40.36;45.60;;
11999;Laerm;40817;51.520;9.954;2023-02-07T05:38:23;43.63;40.53;45.69;;
11999;Laerm;40817;51.520;9.954;2023-02-07T05:40:51;43.66;40.53;47.40;;
11999;Laerm;40817;51.520;9.954;2023-02-07T05:43:18;43.92;40.53;45.54;;
11999;Laerm;40817;51.520;9.954;2023-02-07T05:45:46;43.76;40.62;45.99;;
11999;Laerm;40817;51.520;9.954;2023-02-07T05:48:15;43.13;39.70;48.67;;
11999;Laerm;40817;51.520;9.954;2023-02-07T05:50:42;42.95;39.34;45.75;;
11999;Laerm;40817;51.520;9.954;2023-02-07T05:53:10;43.11;38.95;52.59;;
11999;Laerm;40817;51.520;9.954;2023-02-07T05:55:38;42.92;38.05;50.79;;
11999;Laerm;40817;51.520;9.954;2023-02-07T05:58:05;43.07;38.05;50.08;;
11999;Laerm;40817;51.520;9.954;2023-02-07T06:00:33;43.98;39.81;50.55;;
11999;Laerm;40817;51.520;9.954;2023-02-07T06:03:00;43.74;40.43;45.80;;
11999;Laerm;40817;51.520;9.954;2023-02-07T06:05:29;44.17;39.70;59.97;;
11999;Laerm;40817;51.520;9.954;2023-02-07T06:07:58;44.48;39.81;64.26;;
11999;Laerm;40817;51.520;9.954;2023-02-07T06:10:26;43.47;38.67;46.66;;
11999;Laerm;40817;51.520;9.954;2023-02-07T06:12:54;46.71;39.70;60.77;;
11999;Laerm;40817;51.520;9.954;2023-02-07T06:15:21;43.73;38.52;48.80;;
11999;Laerm;40817;51.520;9.954;2023-02-07T06:17:49;43.32;39.70;53.47;;
11999;Laerm;40817;51.520;9.954;2023-02-07T06:20:17;43.98;39.34;58.03;;
11999;Laerm;40817;51.520;9.954;2023-02-07T06:22:46;43.80;38.52;57.32;;
11999;Laerm;40817;51.520;9.954;2023-02-07T06:25:13;43.55;39.08;53.08;;
11999;Laerm;40817;51.520;9.954;2023-02-07T06:27:41;43.36;39.58;50.50;;
11999;Laerm;40817;51.520;9.954;2023-02-07T06:30:11;43.25;39.92;51.16;;
11999;Laerm;40817;51.520;9.954;2023-02-07T06:32:39;43.69;39.34;57.04;;
11999;Laerm;40817;51.520;9.954;2023-02-07T06:35:08;58.70;40.33;74.25;;
11999;Laerm;40817;51.520;9.954;2023-02-07T06:37:36;43.92;40.43;57.51;;
11999;Laerm;40817;51.520;9.954;2023-02-07T06:40:06;45.48;38.52;72.72;;
11999;Laerm;40817;51.520;9.954;2023-02-07T06:42:34;46.93;39.99;60.31;;
11999;Laerm;40817;51.520;9.954;2023-02-07T06:45:02;43.72;39.46;58.82;;
11999;Laerm;40817;51.520;9.954;2023-02-07T06:47:29;44.14;40.80;53.04;;
11999;Laerm;40817;51.520;9.954;2023-02-07T06:49:57;44.08;40.62;52.44;;
11999;Laerm;40817;51.520;9.954;2023-02-07T06:52:24;43.76;40.62;52.28;;
11999;Laerm;40817;51.520;9.954;2023-02-07T06:54:52;43.63;40.13;53.03;;
11999;Laerm;40817;51.520;9.954;2023-02-07T06:57:20;44.49;40.53;57.98;;
11999;Laerm;40817;51.520;9.954;2023-02-07T06:59:48;44.01;40.27;57.22;;
11999;Laerm;40817;51.520;9.954;2023-02-07T07:02:15;44.20;39.70;59.72;;
11999;Laerm;40817;51.520;9.954;2023-02-07T07:04:43;43.58;38.81;53.73;;
11999;Laerm;40817;51.520;9.954;2023-02-07T07:07:10;43.92;39.58;64.45;;
11999;Laerm;40817;51.520;9.954;2023-02-07T07:09:38;44.09;41.22;49.95;;
11999;Laerm;40817;51.520;9.954;2023-02-07T07:12:06;44.00;40.89;46.13;;
11999;Laerm;40817;51.520;9.954;2023-02-07T07:14:35;47.41;41.06;57.88;;
11999;Laerm;40817;51.520;9.954;2023-02-07T07:17:02;45.35;41.46;57.05;;
11999;Laerm;40817;51.520;9.954;2023-02-07T07:19:30;47.15;40.43;58.31;;
11999;Laerm;40817;51.520;9.954;2023-02-07T07:21:57;43.55;40.45;46.64;;
11999;Laerm;40817;51.520;9.954;2023-02-07T07:24:25;43.73;40.33;57.29;;
11999;Laerm;40817;51.520;9.954;2023-02-07T07:26:53;48.26;40.03;62.80;;
11999;Laerm;40817;51.520;9.954;2023-02-07T07:29:22;43.45;39.70;63.27;;
11999;Laerm;40817;51.520;9.954;2023-02-07T07:31:50;43.58;38.81;63.71;;
11999;Laerm;40817;51.520;9.954;2023-02-07T07:34:18;42.88;38.37;49.94;;
11999;Laerm;40817;51.520;9.954;2023-02-07T07:36:46;43.11;38.37;48.66;;
11999;Laerm;40817;51.520;9.954;2023-02-07T07:39:13;44.44;39.34;57.15;;
11999;Laerm;40817;51.520;9.954;2023-02-07T07:41:42;43.58;40.80;55.11;;
11999;Laerm;40817;51.520;9.954;2023-02-07T07:44:09;43.73;38.95;68.04;;
11999;Laerm;40817;51.520;9.954;2023-02-07T07:46:37;43.26;40.33;48.81;;
11999;Laerm;40817;51.520;9.954;2023-02-07T07:49:06;44.27;40.43;50.77;;
11999;Laerm;40817;51.520;9.954;2023-02-07T07:51:33;43.69;39.81;50.47;;
11999;Laerm;40817;51.520;9.954;2023-02-07T07:54:01;43.19;38.67;51.81;;
11999;Laerm;40817;51.520;9.954;2023-02-07T07:56:28;43.53;40.23;51.76;;
11999;Laerm;40817;51.520;9.954;2023-02-07T07:58:56;43.15;39.92;46.13;;
11999;Laerm;40817;51.520;9.954;2023-02-07T08:01:24;43.35;39.21;54.64;;
11999;Laerm;40817;51.520;9.954;2023-02-07T08:03:51;43.75;40.33;46.55;;
11999;Laerm;40817;51.520;9.954;2023-02-07T08:06:20;43.37;39.21;50.36;;
11999;Laerm;40817;51.520;9.954;2023-02-07T08:08:48;43.98;40.03;69.85;;
11999;Laerm;40817;51.520;9.954;2023-02-07T08:11:15;43.79;40.53;56.36;;
11999;Laerm;40817;51.520;9.954;2023-02-07T08:13:43;43.21;39.81;48.08;;
11999;Laerm;40817;51.520;9.954;2023-02-07T08:16:11;43.15;39.08;48.20;;
11999;Laerm;40817;51.520;9.954;2023-02-07T08:18:38;43.22;39.81;47.70;;
11999;Laerm;40817;51.520;9.954;2023-02-07T08:21:06;43.06;39.81;53.76;;
11999;Laerm;40817;51.520;9.954;2023-02-07T08:23:35;47.04;40.43;67.44;;
11999;Laerm;40817;51.520;9.954;2023-02-07T08:26:04;43.65;40.62;55.07;;
11999;Laerm;40817;51.520;9.954;2023-02-07T08:28:33;47.32;40.62;70.00;;
11999;Laerm;40817;51.520;9.954;2023-02-07T08:31:02;44.19;40.23;61.57;;
11999;Laerm;40817;51.520;9.954;2023-02-07T08:33:30;43.14;39.70;45.39;;
11999;Laerm;40817;51.520;9.954;2023-02-07T08:35:58;43.52;40.13;46.62;;
11999;Laerm;40817;51.520;9.954;2023-02-07T08:38:26;43.05;39.46;47.18;;
11999;Laerm;40817;51.520;9.954;2023-02-07T08:40:55;43.35;37.70;49.58;;
11999;Laerm;40817;51.520;9.954;2023-02-07T08:43:22;42.69;37.52;47.06;;
11999;Laerm;40817;51.520;9.954;2023-02-07T08:45:49;43.41;38.05;52.33;;
11999;Laerm;40817;51.520;9.954;2023-02-07T08:48:17;49.39;38.95;61.26;;
11999;Laerm;40817;51.520;9.954;2023-02-07T08:50:44;43.27;38.05;63.46;;
11999;Laerm;40817;51.520;9.954;2023-02-07T08:53:12;44.97;38.67;65.32;;
11999;Laerm;40817;51.520;9.954;2023-02-07T08:55:40;42.90;39.70;59.78;;
11999;Laerm;40817;51.520;9.954;2023-02-07T08:58:10;42.52;38.21;46.25;;
11999;Laerm;40817;51.520;9.954;2023-02-07T09:00:37;42.89;38.95;51.64;;
11999;Laerm;40817;51.520;9.954;2023-02-07T09:03:05;42.58;36.77;46.57;;
11999;Laerm;40817;51.520;9.954;2023-02-07T09:05:33;42.85;38.52;52.53;;
11999;Laerm;40817;51.520;9.954;2023-02-07T09:08:01;42.61;39.46;46.35;;
11999;Laerm;40817;51.520;9.954;2023-02-07T09:10:29;42.46;37.70;47.77;;
11999;Laerm;40817;51.520;9.954;2023-02-07T09:12:57;43.13;39.21;53.49;;
11999;Laerm;40817;51.520;9.954;2023-02-07T09:15:25;43.53;39.81;51.66;;
11999;Laerm;40817;51.520;9.954;2023-02-07T09:17:53;43.53;39.99;52.41;;
11999;Laerm;40817;51.520;9.954;2023-02-07T09:20:21;44.83;40.13;64.60;;
11999;Laerm;40817;51.520;9.954;2023-02-07T09:22:49;43.41;38.81;57.62;;
11999;Laerm;40817;51.520;9.954;2023-02-07T09:25:37;43.71;40.62;56.05;;
11999;Laerm;40817;51.520;9.954;2023-02-07T09:28:04;43.69;40.27;53.59;;
11999;Laerm;40817;51.520;9.954;2023-02-07T09:30:33;43.60;39.92;57.11;;
11999;Laerm;40817;51.520;9.954;2023-02-07T09:33:01;43.50;40.13;53.09;;
11999;Laerm;40817;51.520;9.954;2023-02-07T09:35:29;55.20;40.33;69.34;;
11999;Laerm;40817;51.520;9.954;2023-02-07T09:37:56;43.39;39.99;53.07;;
11999;Laerm;40817;51.520;9.954;2023-02-07T09:40:24;43.79;41.06;52.02;;
11999;Laerm;40817;51.520;9.954;2023-02-07T09:42:57;43.82;40.62;56.18;;
11999;Laerm;40817;51.520;9.954;2023-02-07T09:45:39;44.35;40.33;59.49;;
11999;Laerm;40817;51.520;9.954;2023-02-07T09:48:18;44.58;41.14;57.92;;
11999;Laerm;40817;51.520;9.954;2023-02-07T09:50:51;44.26;40.62;49.12;;
11999;Laerm;40817;51.520;9.954;2023-02-07T09:53:24;44.43;40.53;51.33;;
11999;Laerm;40817;51.520;9.954;2023-02-07T09:55:57;44.33;40.89;50.50;;
11999;Laerm;40817;51.520;9.954;2023-02-07T09:58:38;43.93;41.06;52.12;;
11999;Laerm;40817;51.520;9.954;2023-02-07T10:01:15;44.02;40.71;54.23;;
11999;Laerm;40817;51.520;9.954;2023-02-07T10:03:57;44.16;40.71;57.55;;
11999;Laerm;40817;51.520;9.954;2023-02-07T10:06:29;44.18;41.06;51.82;;
11999;Laerm;40817;51.520;9.954;2023-02-07T10:08:59;44.01;39.21;55.56;;
11999;Laerm;40817;51.520;9.954;2023-02-07T10:11:40;43.84;40.53;53.69;;
11999;Laerm;40817;51.520;9.954;2023-02-07T10:14:35;43.83;40.33;55.55;;
11999;Laerm;40817;51.520;9.954;2023-02-07T10:17:29;44.34;41.53;49.50;;
11999;Laerm;40817;51.520;9.954;2023-02-07T10:20:27;44.48;41.38;63.08;;
11999;Laerm;40817;51.520;9.954;2023-02-07T10:23:15;44.10;40.80;61.94;;
11999;Laerm;40817;51.520;9.954;2023-02-07T10:26:02;44.55;41.22;66.08;;
11999;Laerm;40817;51.520;9.954;2023-02-07T10:31:45;44.76;40.89;60.41;;
11999;Laerm;40817;51.520;9.954;2023-02-07T10:34:20;44.16;41.06;60.15;;
11999;Laerm;40817;51.520;9.954;2023-02-07T10:36:51;44.05;39.34;68.32;;
11999;Laerm;40817;51.520;9.954;2023-02-07T10:39:26;43.74;39.92;45.89;;
11999;Laerm;40817;51.520;9.954;2023-02-07T10:41:56;44.09;40.80;53.37;;
11999;Laerm;40817;51.520;9.954;2023-02-07T10:44:25;44.32;40.80;60.97;;
11999;Laerm;40817;51.520;9.954;2023-02-07T10:46:58;45.67;40.71;71.26;;
11999;Laerm;40817;51.520;9.954;2023-02-07T10:49:32;44.15;40.71;56.27;;
11999;Laerm;40817;51.520;9.954;2023-02-07T10:52:25;44.00;40.62;55.29;;
11999;Laerm;40817;51.520;9.954;2023-02-07T10:54:57;43.78;40.23;60.23;;
11999;Laerm;40817;51.520;9.954;2023-02-07T10:57:27;43.84;39.46;60.06;;
11999;Laerm;40817;51.520;9.954;2023-02-07T11:00:04;45.69;40.80;56.32;;
11999;Laerm;40817;51.520;9.954;2023-02-07T11:02:47;52.70;43.49;60.17;;
11999;Laerm;40817;51.520;9.954;2023-02-07T11:05:56;43.87;40.53;52.53;;
11999;Laerm;40817;51.520;9.954;2023-02-07T11:08:26;43.48;40.43;46.30;;
11999;Laerm;40817;51.520;9.954;2023-02-07T11:10:56;46.18;40.13;63.15;;
11999;Laerm;40817;51.520;9.954;2023-02-07T11:13:27;43.57;39.58;48.95;;
11999;Laerm;40817;51.520;9.954;2023-02-07T11:16:00;46.32;39.57;61.95;;
11999;Laerm;40817;51.520;9.954;2023-02-07T11:18:39;48.39;39.34;82.32;;
11999;Laerm;40817;51.520;9.954;2023-02-07T11:21:27;43.65;39.81;48.78;;
11999;Laerm;40817;51.520;9.954;2023-02-07T11:24:04;44.38;40.03;53.36;;
11999;Laerm;40817;51.520;9.954;2023-02-07T11:26:37;43.40;40.53;51.13;;
11999;Laerm;40817;51.520;9.954;2023-02-07T11:29:12;43.27;38.95;51.82;;
11999;Laerm;40817;51.520;9.954;2023-02-07T11:31:42;43.21;39.81;50.80;;
11999;Laerm;40817;51.520;9.954;2023-02-07T11:34:45;43.86;39.58;59.43;;
11999;Laerm;40817;51.520;9.954;2023-02-07T11:37:26;46.54;39.46;65.05;;
11999;Laerm;40817;51.520;9.954;2023-02-07T11:42:40;43.76;39.08;55.30;;
11999;Laerm;40817;51.520;9.954;2023-02-07T11:45:15;43.22;40.13;60.44;;
11999;Laerm;40817;51.520;9.954;2023-02-07T11:47:46;43.20;39.21;59.98;;
11999;Laerm;40817;51.520;9.954;2023-02-07T11:50:22;43.27;40.13;48.73;;
11999;Laerm;40817;51.520;9.954;2023-02-07T11:52:55;43.17;38.95;55.60;;
11999;Laerm;40817;51.520;9.954;2023-02-07T11:55:28;43.18;39.70;55.47;;
11999;Laerm;40817;51.520;9.954;2023-02-07T11:58:07;43.40;39.46;58.63;;
11999;Laerm;40817;51.520;9.954;2023-02-07T12:00:37;42.83;38.81;52.53;;
11999;Laerm;40817;51.520;9.954;2023-02-07T12:03:14;43.11;39.81;62.63;;
11999;Laerm;40817;51.520;9.954;2023-02-07T12:05:51;43.69;39.21;53.85;;
11999;Laerm;40817;51.520;9.954;2023-02-07T12:08:26;43.79;39.08;64.75;;
11999;Laerm;40817;51.520;9.954;2023-02-07T12:10:58;44.67;39.46;61.37;;
11999;Laerm;40817;51.520;9.954;2023-02-07T12:13:32;45.15;39.70;64.18;;
11999;Laerm;40817;51.520;9.954;2023-02-07T12:16:11;43.31;39.58;57.09;;
11999;Laerm;40817;51.520;9.954;2023-02-07T12:18:44;42.68;39.34;53.29;;
11999;Laerm;40817;51.520;9.954;2023-02-07T12:21:20;42.49;38.95;46.28;;
11999;Laerm;40817;51.520;9.954;2023-02-07T12:23:58;43.32;38.81;52.81;;
11999;Laerm;40817;51.520;9.954;2023-02-07T12:26:31;43.77;38.95;58.78;;
11999;Laerm;40817;51.520;9.954;2023-02-07T12:29:20;44.89;39.21;60.56;;
11999;Laerm;40817;51.520;9.954;2023-02-07T12:32:00;44.67;38.18;60.16;;
11999;Laerm;40817;51.520;9.954;2023-02-07T12:34:40;42.30;38.21;53.19;;
11999;Laerm;40817;51.520;9.954;2023-02-07T12:37:38;42.96;38.67;58.67;;
11999;Laerm;40817;51.520;9.954;2023-02-07T12:40:20;42.16;38.37;48.18;;
11999;Laerm;40817;51.520;9.954;2023-02-07T12:42:57;42.14;38.37;60.36;;
11999;Laerm;40817;51.520;9.954;2023-02-07T12:45:49;42.47;38.67;52.60;;
11999;Laerm;40817;51.520;9.954;2023-02-07T12:48:38;44.60;39.21;57.48;;
11999;Laerm;40817;51.520;9.954;2023-02-07T12:51:25;42.54;38.21;48.99;;
11999;Laerm;40817;51.520;9.954;2023-02-07T12:54:11;46.20;39.34;64.39;;
11999;Laerm;40817;51.520;9.954;2023-02-07T12:56:52;42.61;38.67;50.23;;
11999;Laerm;40817;51.520;9.954;2023-02-07T12:59:34;43.62;39.70;59.70;;
11999;Laerm;40817;51.520;9.954;2023-02-07T13:02:34;43.84;40.89;60.32;;
11999;Laerm;40817;51.520;9.954;2023-02-07T13:05:50;43.61;39.92;62.25;;
11999;Laerm;40817;51.520;9.954;2023-02-07T13:08:32;43.47;40.27;59.16;;
11999;Laerm;40817;51.520;9.954;2023-02-07T13:11:20;43.74;40.33;55.08;;
11999;Laerm;40817;51.520;9.954;2023-02-07T13:14:09;43.71;39.46;53.39;;
11999;Laerm;40817;51.520;9.954;2023-02-07T13:16:50;43.66;40.03;50.80;;
11999;Laerm;40817;51.520;9.954;2023-02-07T13:19:26;43.51;40.43;60.82;;
11999;Laerm;40817;51.520;9.954;2023-02-07T13:22:00;43.37;39.11;48.77;;
11999;Laerm;40817;51.520;9.954;2023-02-07T13:24:32;43.51;39.92;64.17;;
11999;Laerm;40817;51.520;9.954;2023-02-07T13:27:18;43.21;40.03;45.83;;
11999;Laerm;40817;51.520;9.954;2023-02-07T13:29:49;43.41;39.92;57.48;;
11999;Laerm;40817;51.520;9.954;2023-02-07T13:32:21;43.37;40.03;45.83;;
11999;Laerm;40817;51.520;9.954;2023-02-07T13:34:56;43.73;39.70;60.41;;
11999;Laerm;40817;51.520;9.954;2023-02-07T13:37:37;44.29;39.46;53.12;;
11999;Laerm;40817;51.520;9.954;2023-02-07T13:40:29;43.45;40.62;59.64;;
11999;Laerm;40817;51.520;9.954;2023-02-07T13:43:06;43.49;40.03;46.30;;
11999;Laerm;40817;51.520;9.954;2023-02-07T13:45:47;43.53;39.58;50.94;;
11999;Laerm;40817;51.520;9.954;2023-02-07T13:48:23;43.52;39.21;54.34;;
11999;Laerm;40817;51.520;9.954;2023-02-07T13:51:01;43.47;40.33;46.67;;
11999;Laerm;40817;51.520;9.954;2023-02-07T13:53:45;43.60;40.23;49.91;;
11999;Laerm;40817;51.520;9.954;2023-02-07T13:56:32;43.26;39.92;45.33;;
11999;Laerm;40817;51.520;9.954;2023-02-07T13:59:33;43.83;40.13;61.29;;
11999;Laerm;40817;51.520;9.954;2023-02-07T14:02:17;43.61;40.33;50.56;;
11999;Laerm;40817;51.520;9.954;2023-02-07T14:04:49;43.94;40.33;64.95;;
11999;Laerm;40817;51.520;9.954;2023-02-07T14:07:21;43.23;40.13;48.76;;
11999;Laerm;40817;51.520;9.954;2023-02-07T14:09:54;43.41;40.03;52.31;;
11999;Laerm;40817;51.520;9.954;2023-02-07T14:12:26;43.16;39.92;58.69;;
11999;Laerm;40817;51.520;9.954;2023-02-07T14:15:27;43.78;40.13;51.95;;
11999;Laerm;40817;51.520;9.954;2023-02-07T14:18:47;43.26;39.58;50.93;;
11999;Laerm;40817;51.520;9.954;2023-02-07T14:21:38;43.76;40.43;49.12;;
11999;Laerm;40817;51.520;9.954;2023-02-07T14:24:30;43.83;40.33;54.34;;
11999;Laerm;40817;51.520;9.954;2023-02-07T14:27:28;44.46;41.22;51.47;;
11999;Laerm;40817;51.520;9.954;2023-02-07T14:30:19;43.39;39.81;57.27;;
11999;Laerm;40817;51.520;9.954;2023-02-07T14:33:12;43.62;39.46;51.12;;
11999;Laerm;40817;51.520;9.954;2023-02-07T14:36:23;43.50;39.92;64.82;;
11999;Laerm;40817;51.520;9.954;2023-02-07T14:39:29;43.27;39.70;50.47;;